SBOSBO PRY / FAWB
Speedbird OnlineSpeedbird Online PRY / FAWB

Wonderboom Airport
20:40 22.4°C

Location Pretoria, South Africa
Latitude: -25.6539
Longitude: 28.224199
Web Airport Website | Wikipedia
Altitude 1248 Meter / 4095 Feet
Distance 9,009 KM / 5,598 Miles
from London.
Time Zone UTC +2 hours (Africa/Johannesburg)
Codes IATA: PRY
ICAO: FAWB
Currency £1 equals ZAR 21.09
Runways
RunwayLength (m)Surface
061280Asphalt
111828Asphalt
241280Asphalt
291828Asphalt
Radio
TypeDescriptionFrequency
GNDWonderboom Ground120.6
TWRWonderboom Tower118.35
Live ATC
METAR FAWB 091800Z AUTO 05003KT //// // ////// 22/15 Q1021
TAF
Weather As Of 09 Dec 2022 20:40
Description Overcast clouds
Wind 6 km/h from North-East (50°)
Cloud Cover 96%
Precipitation Rain: none, Snow: none
Sunrise 05:08
Sunset 18:50


© 2017-2022 Speedbird Online